sensor_id;sensor_type;location;lat;lon;timestamp;pressure;altitude;pressure_sealevel;temperature;humidity
12221;BME280;6173;42.024;23.096;2022-08-03T00:01:02;96632.19;;;19.65;68.58
12221;BME280;6173;42.024;23.096;2022-08-03T00:03:29;96631.25;;;19.73;68.83
12221;BME280;6173;42.024;23.096;2022-08-03T00:05:56;96631.84;;;19.66;68.96
12221;BME280;6173;42.024;23.096;2022-08-03T00:08:24;96629.84;;;19.63;70.11
12221;BME280;6173;42.024;23.096;2022-08-03T00:10:51;96629.94;;;19.67;68.93
12221;BME280;6173;42.024;23.096;2022-08-03T00:13:18;96627.69;;;19.69;68.21
12221;BME280;6173;42.024;23.096;2022-08-03T00:15:44;96617.19;;;19.63;68.76
12221;BME280;6173;42.024;23.096;2022-08-03T00:18:11;96623.09;;;19.69;68.64
12221;BME280;6173;42.024;23.096;2022-08-03T00:20:38;96625.44;;;19.71;68.67
12221;BME280;6173;42.024;23.096;2022-08-03T00:23:05;96627.53;;;19.77;68.51
12221;BME280;6173;42.024;23.096;2022-08-03T00:25:34;96624.66;;;19.70;68.87
12221;BME280;6173;42.024;23.096;2022-08-03T00:28:01;96622.22;;;19.65;69.32
12221;BME280;6173;42.024;23.096;2022-08-03T00:30:28;96623.81;;;19.54;69.49
12221;BME280;6173;42.024;23.096;2022-08-03T00:32:56;96626.41;;;19.50;69.94
12221;BME280;6173;42.024;23.096;2022-08-03T00:35:23;96639.50;;;19.52;69.83
12221;BME280;6173;42.024;23.096;2022-08-03T00:37:51;96621.88;;;19.38;70.44
12221;BME280;6173;42.024;23.096;2022-08-03T00:40:18;96635.72;;;19.25;71.66
12221;BME280;6173;42.024;23.096;2022-08-03T00:42:48;96640.19;;;19.21;72.73
12221;BME280;6173;42.024;23.096;2022-08-03T00:45:16;96633.50;;;19.15;72.26
12221;BME280;6173;42.024;23.096;2022-08-03T00:47:43;96638.81;;;18.99;73.47
12221;BME280;6173;42.024;23.096;2022-08-03T00:50:11;96627.09;;;18.91;73.47
12221;BME280;6173;42.024;23.096;2022-08-03T00:52:38;96644.88;;;18.96;73.17
12221;BME280;6173;42.024;23.096;2022-08-03T00:55:05;96637.25;;;18.98;73.63
12221;BME280;6173;42.024;23.096;2022-08-03T00:57:32;96650.91;;;18.93;73.31
12221;BME280;6173;42.024;23.096;2022-08-03T01:00:00;96649.22;;;19.00;73.78
12221;BME280;6173;42.024;23.096;2022-08-03T01:02:28;96642.13;;;19.08;73.82
12221;BME280;6173;42.024;23.096;2022-08-03T01:04:55;96645.16;;;19.06;72.29
12221;BME280;6173;42.024;23.096;2022-08-03T01:07:28;96650.50;;;19.19;71.76
12221;BME280;6173;42.024;23.096;2022-08-03T01:10:01;96655.13;;;19.34;71.40
12221;BME280;6173;42.024;23.096;2022-08-03T01:12:34;96655.22;;;19.37;70.80
12221;BME280;6173;42.024;23.096;2022-08-03T01:15:08;96661.63;;;19.33;71.86
12221;BME280;6173;42.024;23.096;2022-08-03T01:17:40;96648.16;;;19.17;72.41
12221;BME280;6173;42.024;23.096;2022-08-03T01:20:12;96649.16;;;19.13;72.65
12221;BME280;6173;42.024;23.096;2022-08-03T01:25:41;96663.72;;;19.11;74.79
12221;BME280;6173;42.024;23.096;2022-08-03T01:28:32;96662.06;;;19.07;74.93
12221;BME280;6173;42.024;23.096;2022-08-03T01:31:07;96662.72;;;19.04;75.56
12221;BME280;6173;42.024;23.096;2022-08-03T01:33:38;96659.25;;;19.16;74.62
12221;BME280;6173;42.024;23.096;2022-08-03T01:36:09;96660.81;;;19.17;75.40
12221;BME280;6173;42.024;23.096;2022-08-03T01:38:42;96662.72;;;19.16;74.53
12221;BME280;6173;42.024;23.096;2022-08-03T01:41:12;96653.34;;;18.98;76.07
12221;BME280;6173;42.024;23.096;2022-08-03T01:43:41;96652.69;;;18.89;77.16
12221;BME280;6173;42.024;23.096;2022-08-03T01:46:11;96654.59;;;18.88;77.71
12221;BME280;6173;42.024;23.096;2022-08-03T01:48:41;96649.03;;;18.81;78.63
12221;BME280;6173;42.024;23.096;2022-08-03T01:51:09;96652.63;;;18.85;78.22
12221;BME280;6173;42.024;23.096;2022-08-03T01:53:38;96649.03;;;18.81;77.51
12221;BME280;6173;42.024;23.096;2022-08-03T01:56:07;96628.91;;;18.63;78.79
12221;BME280;6173;42.024;23.096;2022-08-03T01:58:36;96640.22;;;18.68;78.79
12221;BME280;6173;42.024;23.096;2022-08-03T02:01:04;96651.06;;;18.72;78.78
12221;BME280;6173;42.024;23.096;2022-08-03T02:03:36;96644.78;;;18.68;78.64
12221;BME280;6173;42.024;23.096;2022-08-03T02:06:04;96651.72;;;18.69;78.66
12221;BME280;6173;42.024;23.096;2022-08-03T02:08:33;96648.72;;;18.70;78.63
12221;BME280;6173;42.024;23.096;2022-08-03T02:11:01;96658.06;;;18.64;77.96
12221;BME280;6173;42.024;23.096;2022-08-03T02:13:29;96646.81;;;18.46;79.48
12221;BME280;6173;42.024;23.096;2022-08-03T02:15:58;96653.94;;;18.54;79.22
12221;BME280;6173;42.024;23.096;2022-08-03T02:18:26;96653.06;;;18.50;79.84
12221;BME280;6173;42.024;23.096;2022-08-03T02:20:58;96641.13;;;18.36;79.46
12221;BME280;6173;42.024;23.096;2022-08-03T02:23:25;96653.63;;;18.44;80.48
12221;BME280;6173;42.024;23.096;2022-08-03T02:25:56;96652.84;;;18.43;81.01
12221;BME280;6173;42.024;23.096;2022-08-03T02:28:30;96649.25;;;18.39;80.76
12221;BME280;6173;42.024;23.096;2022-08-03T02:30:58;96653.31;;;18.45;81.84
12221;BME280;6173;42.024;23.096;2022-08-03T02:33:31;96650.72;;;18.37;81.25
12221;BME280;6173;42.024;23.096;2022-08-03T02:36:02;96658.44;;;18.38;80.92
12221;BME280;6173;42.024;23.096;2022-08-03T02:38:35;96652.75;;;18.27;81.76
12221;BME280;6173;42.024;23.096;2022-08-03T02:41:08;96664.69;;;18.42;81.56
12221;BME280;6173;42.024;23.096;2022-08-03T02:43:39;96644.47;;;18.32;82.06
12221;BME280;6173;42.024;23.096;2022-08-03T02:46:06;96656.31;;;18.44;82.18
12221;BME280;6173;42.024;23.096;2022-08-03T02:48:36;96658.44;;;18.38;82.69
12221;BME280;6173;42.024;23.096;2022-08-03T02:51:06;96660.69;;;18.36;83.33
12221;BME280;6173;42.024;23.096;2022-08-03T02:53:33;96654.63;;;18.39;82.73
12221;BME280;6173;42.024;23.096;2022-08-03T02:56:01;96661.81;;;18.35;82.18
12221;BME280;6173;42.024;23.096;2022-08-03T02:58:30;96654.19;;;18.37;82.39
12221;BME280;6173;42.024;23.096;2022-08-03T03:00:58;96659.53;;;18.25;83.53
12221;BME280;6173;42.024;23.096;2022-08-03T03:03:25;96648.16;;;18.16;83.96
12221;BME280;6173;42.024;23.096;2022-08-03T03:05:53;96669.28;;;18.17;84.02
12221;BME280;6173;42.024;23.096;2022-08-03T03:08:22;96666.69;;;18.08;85.38
12221;BME280;6173;42.024;23.096;2022-08-03T03:10:51;96661.53;;;17.91;86.06
12221;BME280;6173;42.024;23.096;2022-08-03T03:13:20;96635.44;;;17.67;86.11
12221;BME280;6173;42.024;23.096;2022-08-03T03:15:49;96674.59;;;17.93;86.92
12221;BME280;6173;42.024;23.096;2022-08-03T03:18:19;96668.31;;;17.89;86.59
12221;BME280;6173;42.024;23.096;2022-08-03T03:20:46;96681.19;;;17.95;86.73
12221;BME280;6173;42.024;23.096;2022-08-03T03:23:14;96679.81;;;17.89;87.60
12221;BME280;6173;42.024;23.096;2022-08-03T03:25:44;96680.03;;;17.84;87.90
12221;BME280;6173;42.024;23.096;2022-08-03T03:28:11;96684.97;;;17.82;89.63
12221;BME280;6173;42.024;23.096;2022-08-03T03:30:38;96676.38;;;17.89;88.74
12221;BME280;6173;42.024;23.096;2022-08-03T03:33:05;96690.66;;;17.93;88.60
12221;BME280;6173;42.024;23.096;2022-08-03T03:35:32;96692.28;;;17.73;92.53
12221;BME280;6173;42.024;23.096;2022-08-03T03:37:59;96675.56;;;17.55;92.25
12221;BME280;6173;42.024;23.096;2022-08-03T03:40:26;96649.31;;;17.36;92.52
12221;BME280;6173;42.024;23.096;2022-08-03T03:42:55;96698.59;;;17.68;89.89
12221;BME280;6173;42.024;23.096;2022-08-03T03:45:22;96699.84;;;17.71;91.87
12221;BME280;6173;42.024;23.096;2022-08-03T03:47:49;96687.72;;;17.73;91.74
12221;BME280;6173;42.024;23.096;2022-08-03T03:50:17;96698.34;;;17.82;90.79
12221;BME280;6173;42.024;23.096;2022-08-03T03:52:44;96703.72;;;17.82;89.54
12221;BME280;6173;42.024;23.096;2022-08-03T03:55:14;96702.16;;;17.81;90.48
12221;BME280;6173;42.024;23.096;2022-08-03T03:57:41;96700.91;;;17.78;89.83
12221;BME280;6173;42.024;23.096;2022-08-03T04:00:11;96702.25;;;17.85;90.32
12221;BME280;6173;42.024;23.096;2022-08-03T04:02:38;96704.94;;;17.85;90.34
12221;BME280;6173;42.024;23.096;2022-08-03T04:05:06;96699.16;;;17.95;89.42
12221;BME280;6173;42.024;23.096;2022-08-03T04:07:56;96707.66;;;18.09;88.40
12221;BME280;6173;42.024;23.096;2022-08-03T04:10:42;96705.56;;;18.15;88.34
12221;BME280;6173;42.024;23.096;2022-08-03T04:13:31;96699.53;;;18.18;87.64
12221;BME280;6173;42.024;23.096;2022-08-03T04:16:00;96697.88;;;18.38;87.13
12221;BME280;6173;42.024;23.096;2022-08-03T04:18:30;96704.72;;;18.35;86.20
12221;BME280;6173;42.024;23.096;2022-08-03T04:21:00;96719.91;;;18.43;84.58
12221;BME280;6173;42.024;23.096;2022-08-03T04:23:30;96714.53;;;18.43;84.90
12221;BME280;6173;42.024;23.096;2022-08-03T04:26:00;96729.97;;;18.58;83.48
12221;BME280;6173;42.024;23.096;2022-08-03T04:28:28;96721.69;;;18.51;84.34
12221;BME280;6173;42.024;23.096;2022-08-03T04:30:56;96720.56;;;18.52;84.66
12221;BME280;6173;42.024;23.096;2022-08-03T04:33:26;96720.25;;;18.42;86.42
12221;BME280;6173;42.024;23.096;2022-08-03T04:35:57;96726.81;;;18.44;86.37
12221;BME280;6173;42.024;23.096;2022-08-03T04:38:25;96718.34;;;18.42;86.98
12221;BME280;6173;42.024;23.096;2022-08-03T04:40:54;96728.84;;;18.59;85.55
12221;BME280;6173;42.024;23.096;2022-08-03T04:43:23;96736.00;;;18.68;84.94
12221;BME280;6173;42.024;23.096;2022-08-03T04:45:51;96736.69;;;18.77;83.62
12221;BME280;6173;42.024;23.096;2022-08-03T04:48:19;96735.81;;;18.85;82.18
12221;BME280;6173;42.024;23.096;2022-08-03T04:50:47;96745.06;;;18.88;82.91
12221;BME280;6173;42.024;23.096;2022-08-03T04:53:15;96744.50;;;19.06;81.09
12221;BME280;6173;42.024;23.096;2022-08-03T04:55:42;96736.34;;;19.03;80.27
12221;BME280;6173;42.024;23.096;2022-08-03T04:58:09;96741.00;;;19.18;80.22
12221;BME280;6173;42.024;23.096;2022-08-03T05:00:37;96742.44;;;19.28;80.20
12221;BME280;6173;42.024;23.096;2022-08-03T05:03:03;96749.72;;;19.40;79.23
12221;BME280;6173;42.024;23.096;2022-08-03T05:05:30;96745.31;;;19.47;79.53
12221;BME280;6173;42.024;23.096;2022-08-03T05:07:58;96733.78;;;19.47;79.41
12221;BME280;6173;42.024;23.096;2022-08-03T05:10:25;96752.00;;;19.66;79.89
12221;BME280;6173;42.024;23.096;2022-08-03T05:12:52;96745.50;;;19.67;79.19
12221;BME280;6173;42.024;23.096;2022-08-03T05:15:19;96747.81;;;19.68;78.58
12221;BME280;6173;42.024;23.096;2022-08-03T05:17:45;96745.25;;;19.72;78.79
12221;BME280;6173;42.024;23.096;2022-08-03T05:20:13;96751.00;;;19.86;77.17
12221;BME280;6173;42.024;23.096;2022-08-03T05:22:40;96750.66;;;19.87;76.21
12221;BME280;6173;42.024;23.096;2022-08-03T05:25:08;96758.16;;;19.94;76.99
12221;BME280;6173;42.024;23.096;2022-08-03T05:27:35;96761.91;;;20.05;76.58
12221;BME280;6173;42.024;23.096;2022-08-03T05:30:03;96761.41;;;20.16;75.85
12221;BME280;6173;42.024;23.096;2022-08-03T05:32:30;96738.31;;;20.14;75.46
12221;BME280;6173;42.024;23.096;2022-08-03T05:34:57;96752.47;;;20.27;75.57
12221;BME280;6173;42.024;23.096;2022-08-03T05:37:24;96744.13;;;20.32;75.26
12221;BME280;6173;42.024;23.096;2022-08-03T05:39:51;96750.34;;;20.49;74.92
12221;BME280;6173;42.024;23.096;2022-08-03T05:42:19;96753.88;;;20.53;74.45
12221;BME280;6173;42.024;23.096;2022-08-03T05:44:45;96755.22;;;20.59;74.36
12221;BME280;6173;42.024;23.096;2022-08-03T05:47:12;96756.25;;;20.54;74.15
12221;BME280;6173;42.024;23.096;2022-08-03T05:49:39;96767.84;;;20.43;74.71
12221;BME280;6173;42.024;23.096;2022-08-03T05:52:06;96758.22;;;20.42;73.87
12221;BME280;6173;42.024;23.096;2022-08-03T05:54:33;96754.25;;;20.51;73.33
12221;BME280;6173;42.024;23.096;2022-08-03T05:56:59;96763.88;;;20.52;73.41
12221;BME280;6173;42.024;23.096;2022-08-03T05:59:27;96766.31;;;20.57;74.72
12221;BME280;6173;42.024;23.096;2022-08-03T06:01:54;96757.19;;;20.62;74.32
12221;BME280;6173;42.024;23.096;2022-08-03T06:04:21;96761.88;;;20.81;71.90
12221;BME280;6173;42.024;23.096;2022-08-03T06:06:48;96752.06;;;20.88;70.82
12221;BME280;6173;42.024;23.096;2022-08-03T06:09:15;96757.34;;;21.01;71.08
12221;BME280;6173;42.024;23.096;2022-08-03T06:11:42;96753.13;;;21.03;71.18
12221;BME280;6173;42.024;23.096;2022-08-03T06:14:08;96763.22;;;21.06;70.46
12221;BME280;6173;42.024;23.096;2022-08-03T06:16:37;96758.78;;;21.14;71.14
12221;BME280;6173;42.024;23.096;2022-08-03T06:19:03;96751.63;;;21.22;70.43
12221;BME280;6173;42.024;23.096;2022-08-03T06:21:30;96751.28;;;21.23;69.03
12221;BME280;6173;42.024;23.096;2022-08-03T06:23:57;96760.03;;;21.36;68.48
12221;BME280;6173;42.024;23.096;2022-08-03T06:26:25;96757.06;;;21.41;68.76
12221;BME280;6173;42.024;23.096;2022-08-03T06:28:53;96759.50;;;21.46;68.82
12221;BME280;6173;42.024;23.096;2022-08-03T06:31:21;96754.09;;;21.46;68.43
12221;BME280;6173;42.024;23.096;2022-08-03T06:33:51;96747.25;;;21.49;68.32
12221;BME280;6173;42.024;23.096;2022-08-03T06:36:18;96758.94;;;21.56;66.80
12221;BME280;6173;42.024;23.096;2022-08-03T06:38:45;96756.31;;;21.60;67.98
12221;BME280;6173;42.024;23.096;2022-08-03T06:41:12;96737.06;;;21.42;68.54
12221;BME280;6173;42.024;23.096;2022-08-03T06:43:39;96747.56;;;21.66;66.69
12221;BME280;6173;42.024;23.096;2022-08-03T06:46:06;96754.59;;;21.71;67.80
12221;BME280;6173;42.024;23.096;2022-08-03T06:48:33;96748.56;;;21.78;66.68
12221;BME280;6173;42.024;23.096;2022-08-03T06:51:01;96747.16;;;21.84;67.07
12221;BME280;6173;42.024;23.096;2022-08-03T06:53:28;96754.31;;;21.96;67.82
12221;BME280;6173;42.024;23.096;2022-08-03T06:55:58;96742.84;;;22.02;67.56
12221;BME280;6173;42.024;23.096;2022-08-03T06:58:25;96737.94;;;22.08;65.40
12221;BME280;6173;42.024;23.096;2022-08-03T07:00:52;96734.22;;;22.12;63.97
12221;BME280;6173;42.024;23.096;2022-08-03T07:03:18;96750.34;;;22.32;64.40
12221;BME280;6173;42.024;23.096;2022-08-03T07:05:45;96756.38;;;22.44;64.00
12221;BME280;6173;42.024;23.096;2022-08-03T07:25:47;96747.56;;;23.54;58.29
12221;BME280;6173;42.024;23.096;2022-08-03T07:28:15;96745.44;;;23.40;59.48
12221;BME280;6173;42.024;23.096;2022-08-03T07:30:41;96749.34;;;23.42;59.32
12221;BME280;6173;42.024;23.096;2022-08-03T07:33:08;96747.94;;;23.52;58.97
12221;BME280;6173;42.024;23.096;2022-08-03T07:35:35;96742.09;;;23.50;59.96
12221;BME280;6173;42.024;23.096;2022-08-03T07:38:02;96743.75;;;23.58;59.25
12221;BME280;6173;42.024;23.096;2022-08-03T07:40:28;96736.94;;;23.68;57.42
12221;BME280;6173;42.024;23.096;2022-08-03T07:42:57;96729.28;;;23.73;56.13
12221;BME280;6173;42.024;23.096;2022-08-03T07:45:23;96744.91;;;23.91;56.06
12221;BME280;6173;42.024;23.096;2022-08-03T07:47:51;96737.25;;;23.96;56.50
12221;BME280;6173;42.024;23.096;2022-08-03T07:50:17;96729.16;;;24.00;55.96
12221;BME280;6173;42.024;23.096;2022-08-03T07:52:44;96727.34;;;24.11;55.24
12221;BME280;6173;42.024;23.096;2022-08-03T07:55:15;96726.28;;;24.19;54.60
12221;BME280;6173;42.024;23.096;2022-08-03T07:57:42;96737.53;;;24.25;54.80
12221;BME280;6173;42.024;23.096;2022-08-03T08:00:14;96728.28;;;24.30;53.98
12221;BME280;6173;42.024;23.096;2022-08-03T08:02:42;96728.06;;;24.42;54.79
12221;BME280;6173;42.024;23.096;2022-08-03T08:21:47;96723.03;;;25.72;49.92
12221;BME280;6173;42.024;23.096;2022-08-03T08:24:14;96716.78;;;25.57;48.83
12221;BME280;6173;42.024;23.096;2022-08-03T08:26:40;96723.00;;;25.58;50.85
12221;BME280;6173;42.024;23.096;2022-08-03T08:29:07;96719.88;;;25.59;49.50
12221;BME280;6173;42.024;23.096;2022-08-03T08:31:34;96715.25;;;25.63;49.37
12221;BME280;6173;42.024;23.096;2022-08-03T08:34:01;96718.34;;;25.65;49.14
12221;BME280;6173;42.024;23.096;2022-08-03T08:36:30;96710.97;;;25.66;48.97
12221;BME280;6173;42.024;23.096;2022-08-03T08:38:59;96711.06;;;25.76;47.71
12221;BME280;6173;42.024;23.096;2022-08-03T08:41:26;96704.88;;;25.90;47.83
12221;BME280;6173;42.024;23.096;2022-08-03T08:43:53;96695.97;;;25.86;48.57
12221;BME280;6173;42.024;23.096;2022-08-03T08:46:20;96701.03;;;26.06;47.63
12221;BME280;6173;42.024;23.096;2022-08-03T08:48:48;96701.44;;;26.11;47.62
12221;BME280;6173;42.024;23.096;2022-08-03T08:51:17;96701.44;;;26.15;47.77
12221;BME280;6173;42.024;23.096;2022-08-03T08:53:50;96693.31;;;26.18;47.87
12221;BME280;6173;42.024;23.096;2022-08-03T08:56:19;96699.16;;;26.42;47.33
12221;BME280;6173;42.024;23.096;2022-08-03T08:58:51;96675.09;;;26.47;47.26
12221;BME280;6173;42.024;23.096;2022-08-03T09:01:19;96678.97;;;26.64;46.04
12221;BME280;6173;42.024;23.096;2022-08-03T09:03:47;96686.75;;;26.59;45.71
12221;BME280;6173;42.024;23.096;2022-08-03T09:06:14;96684.41;;;26.64;45.62
12221;BME280;6173;42.024;23.096;2022-08-03T09:08:41;96682.03;;;26.88;44.17
12221;BME280;6173;42.024;23.096;2022-08-03T09:11:08;96674.28;;;26.79;43.52
12221;BME280;6173;42.024;23.096;2022-08-03T09:13:36;96675.44;;;26.92;43.98
12221;BME280;6173;42.024;23.096;2022-08-03T09:16:11;96675.78;;;27.05;42.10
12221;BME280;6173;42.024;23.096;2022-08-03T09:18:39;96674.22;;;27.22;42.35
12221;BME280;6173;42.024;23.096;2022-08-03T09:21:14;96675.66;;;27.44;42.61
12221;BME280;6173;42.024;23.096;2022-08-03T09:23:44;96679.44;;;27.68;42.88
12221;BME280;6173;42.024;23.096;2022-08-03T09:26:19;96674.28;;;27.88;41.58
12221;BME280;6173;42.024;23.096;2022-08-03T09:28:54;96670.69;;;28.05;41.66
12221;BME280;6173;42.024;23.096;2022-08-03T09:31:29;96669.44;;;28.14;40.50
12221;BME280;6173;42.024;23.096;2022-08-03T09:33:57;96670.56;;;28.23;40.35
12221;BME280;6173;42.024;23.096;2022-08-03T09:36:36;96670.47;;;28.38;41.46
12221;BME280;6173;42.024;23.096;2022-08-03T09:39:05;96668.84;;;28.44;39.58
12221;BME280;6173;42.024;23.096;2022-08-03T09:41:32;96663.34;;;28.51;38.89
12221;BME280;6173;42.024;23.096;2022-08-03T09:44:00;96661.66;;;28.64;39.40
12221;BME280;6173;42.024;23.096;2022-08-03T09:46:27;96657.44;;;28.59;38.50
12221;BME280;6173;42.024;23.096;2022-08-03T09:49:11;96662.38;;;28.72;37.58
12221;BME280;6173;42.024;23.096;2022-08-03T09:51:39;96628.94;;;28.64;37.57
12221;BME280;6173;42.024;23.096;2022-08-03T09:54:06;96659.06;;;28.91;36.26
12221;BME280;6173;42.024;23.096;2022-08-03T09:56:40;96646.75;;;29.14;36.28
12221;BME280;6173;42.024;23.096;2022-08-03T09:59:09;96641.50;;;29.30;35.94
12221;BME280;6173;42.024;23.096;2022-08-03T10:01:36;96637.03;;;29.13;35.93
12221;BME280;6173;42.024;23.096;2022-08-03T10:04:10;96639.56;;;29.30;36.56
12221;BME280;6173;42.024;23.096;2022-08-03T10:06:38;96623.47;;;29.40;36.00
12221;BME280;6173;42.024;23.096;2022-08-03T10:09:06;96622.53;;;29.50;35.67
12221;BME280;6173;42.024;23.096;2022-08-03T10:11:34;96618.47;;;29.65;35.79
12221;BME280;6173;42.024;23.096;2022-08-03T10:14:03;96589.34;;;29.55;35.06
12221;BME280;6173;42.024;23.096;2022-08-03T10:16:35;96624.53;;;29.76;34.75
12221;BME280;6173;42.024;23.096;2022-08-03T10:19:03;96624.53;;;29.76;34.75
12221;BME280;6173;42.024;23.096;2022-08-03T10:21:33;96609.22;;;29.82;34.53
12221;BME280;6173;42.024;23.096;2022-08-03T10:24:05;96625.88;;;29.92;34.91
12221;BME280;6173;42.024;23.096;2022-08-03T10:26:34;96615.06;;;30.08;35.50
12221;BME280;6173;42.024;23.096;2022-08-03T10:29:03;96610.75;;;30.10;35.35
12221;BME280;6173;42.024;23.096;2022-08-03T10:31:37;96595.00;;;29.95;35.02
12221;BME280;6173;42.024;23.096;2022-08-03T10:34:09;96587.75;;;30.08;35.53
12221;BME280;6173;42.024;23.096;2022-08-03T10:36:38;96599.81;;;30.10;36.50
12221;BME280;6173;42.024;23.096;2022-08-03T10:39:06;96604.66;;;29.76;37.18
12221;BME280;6173;42.024;23.096;2022-08-03T10:41:36;96597.13;;;29.56;37.10
12221;BME280;6173;42.024;23.096;2022-08-03T10:44:09;96581.91;;;29.82;37.17
12221;BME280;6173;42.024;23.096;2022-08-03T10:46:40;96561.97;;;30.32;37.31
12221;BME280;6173;42.024;23.096;2022-08-03T10:49:08;96568.69;;;30.51;36.46
12221;BME280;6173;42.024;23.096;2022-08-03T10:51:37;96583.16;;;30.92;37.04
12221;BME280;6173;42.024;23.096;2022-08-03T10:54:04;96584.78;;;31.09;35.07
12221;BME280;6173;42.024;23.096;2022-08-03T10:56:38;96580.34;;;31.15;34.61
12221;BME280;6173;42.024;23.096;2022-08-03T10:59:57;96569.84;;;30.94;35.02
12221;BME280;6173;42.024;23.096;2022-08-03T11:03:05;96578.81;;;31.14;34.78
12221;BME280;6173;42.024;23.096;2022-08-03T11:05:37;96546.88;;;31.07;34.99
12221;BME280;6173;42.024;23.096;2022-08-03T11:08:20;96579.31;;;31.81;34.84
12221;BME280;6173;42.024;23.096;2022-08-03T11:10:48;96577.94;;;31.73;34.37
12221;BME280;6173;42.024;23.096;2022-08-03T11:13:17;96580.63;;;31.40;34.59
12221;BME280;6173;42.024;23.096;2022-08-03T11:15:47;96576.00;;;30.98;34.83
12221;BME280;6173;42.024;23.096;2022-08-03T11:18:16;96576.50;;;30.93;35.16
12221;BME280;6173;42.024;23.096;2022-08-03T11:20:47;96573.69;;;30.76;35.09
12221;BME280;6173;42.024;23.096;2022-08-03T11:23:15;96571.22;;;30.62;35.53
12221;BME280;6173;42.024;23.096;2022-08-03T11:26:11;96568.59;;;30.78;35.64
12221;BME280;6173;42.024;23.096;2022-08-03T11:28:38;96564.41;;;30.50;35.59
12221;BME280;6173;42.024;23.096;2022-08-03T11:31:44;96564.25;;;30.81;35.35
12221;BME280;6173;42.024;23.096;2022-08-03T11:34:14;96553.50;;;30.90;35.21
12221;BME280;6173;42.024;23.096;2022-08-03T11:37:19;96559.28;;;31.12;35.04
12221;BME280;6173;42.024;23.096;2022-08-03T11:39:52;96552.81;;;31.22;34.38
12221;BME280;6173;42.024;23.096;2022-08-03T11:42:39;96551.50;;;31.99;33.82
12221;BME280;6173;42.024;23.096;2022-08-03T11:45:07;96552.06;;;32.39;32.65
12221;BME280;6173;42.024;23.096;2022-08-03T11:47:37;96540.88;;;32.17;32.35
12221;BME280;6173;42.024;23.096;2022-08-03T11:50:06;96537.13;;;31.95;32.61
12221;BME280;6173;42.024;23.096;2022-08-03T11:52:38;96532.22;;;32.19;32.51
12221;BME280;6173;42.024;23.096;2022-08-03T11:55:14;96538.78;;;31.73;31.94
12221;BME280;6173;42.024;23.096;2022-08-03T11:57:41;96537.19;;;31.91;31.62
12221;BME280;6173;42.024;23.096;2022-08-03T12:00:26;96532.81;;;31.78;31.93
12221;BME280;6173;42.024;23.096;2022-08-03T12:03:03;96537.38;;;31.84;34.01
12221;BME280;6173;42.024;23.096;2022-08-03T12:05:43;96540.09;;;32.01;34.02
12221;BME280;6173;42.024;23.096;2022-08-03T12:08:11;96545.16;;;32.02;34.85
12221;BME280;6173;42.024;23.096;2022-08-03T12:10:40;96537.38;;;30.96;35.98
12221;BME280;6173;42.024;23.096;2022-08-03T12:13:07;96534.66;;;31.32;36.12
12221;BME280;6173;42.024;23.096;2022-08-03T12:15:34;96527.44;;;31.74;36.15
12221;BME280;6173;42.024;23.096;2022-08-03T12:18:11;96531.56;;;32.44;35.89
12221;BME280;6173;42.024;23.096;2022-08-03T12:20:39;96424.19;;;32.16;36.16
12221;BME280;6173;42.024;23.096;2022-08-03T12:23:07;96523.00;;;32.71;37.59
12221;BME280;6173;42.024;23.096;2022-08-03T12:25:37;96534.19;;;33.18;37.36
12221;BME280;6173;42.024;23.096;2022-08-03T12:28:12;96521.38;;;32.86;38.21
12221;BME280;6173;42.024;23.096;2022-08-03T12:30:41;96528.84;;;32.44;39.08
12221;BME280;6173;42.024;23.096;2022-08-03T12:33:16;96528.22;;;32.53;40.03
12221;BME280;6173;42.024;23.096;2022-08-03T12:35:45;96530.03;;;35.66;34.88
12221;BME280;6173;42.024;23.096;2022-08-03T12:38:18;96522.56;;;37.89;31.46
12221;BME280;6173;42.024;23.096;2022-08-03T12:40:54;96523.25;;;38.61;29.63
12221;BME280;6173;42.024;23.096;2022-08-03T12:43:21;96520.31;;;38.26;30.26
12221;BME280;6173;42.024;23.096;2022-08-03T12:45:48;96528.06;;;40.05;28.83
12221;BME280;6173;42.024;23.096;2022-08-03T12:48:18;96534.38;;;40.46;27.81
12221;BME280;6173;42.024;23.096;2022-08-03T12:50:45;96515.66;;;39.30;29.46
12221;BME280;6173;42.024;23.096;2022-08-03T12:53:27;96519.28;;;38.77;30.17
12221;BME280;6173;42.024;23.096;2022-08-03T12:56:00;96526.25;;;38.34;30.06
12221;BME280;6173;42.024;23.096;2022-08-03T12:58:29;96512.13;;;37.17;31.80
12221;BME280;6173;42.024;23.096;2022-08-03T13:00:58;96529.53;;;36.35;33.01
12221;BME280;6173;42.024;23.096;2022-08-03T13:03:24;96525.53;;;36.18;33.27
12221;BME280;6173;42.024;23.096;2022-08-03T13:05:51;96527.38;;;36.85;32.42
12221;BME280;6173;42.024;23.096;2022-08-03T13:08:21;96522.72;;;35.41;32.49
12221;BME280;6173;42.024;23.096;2022-08-03T13:10:49;96530.97;;;35.90;32.57
12221;BME280;6173;42.024;23.096;2022-08-03T13:13:16;96507.63;;;39.32;28.00
12221;BME280;6173;42.024;23.096;2022-08-03T13:15:44;96541.06;;;41.06;24.97
12221;BME280;6173;42.024;23.096;2022-08-03T13:18:11;96532.16;;;42.96;22.44
12221;BME280;6173;42.024;23.096;2022-08-03T13:20:38;96541.09;;;43.23;21.79
12221;BME280;6173;42.024;23.096;2022-08-03T13:23:05;96527.84;;;43.85;21.08
12221;BME280;6173;42.024;23.096;2022-08-03T13:25:33;96534.09;;;45.07;19.85
12221;BME280;6173;42.024;23.096;2022-08-03T13:28:00;96539.25;;;46.50;18.70
12221;BME280;6173;42.024;23.096;2022-08-03T13:30:29;96521.28;;;46.78;17.98
12221;BME280;6173;42.024;23.096;2022-08-03T13:32:55;96527.66;;;47.43;17.42
12221;BME280;6173;42.024;23.096;2022-08-03T13:35:24;96522.63;;;46.14;18.07
12221;BME280;6173;42.024;23.096;2022-08-03T13:37:51;96514.06;;;47.14;17.00
12221;BME280;6173;42.024;23.096;2022-08-03T13:40:18;96518.38;;;47.48;17.05
12221;BME280;6173;42.024;23.096;2022-08-03T13:42:46;96519.41;;;47.90;16.33
12221;BME280;6173;42.024;23.096;2022-08-03T13:45:13;96516.13;;;47.01;16.51
12221;BME280;6173;42.024;23.096;2022-08-03T13:47:40;96512.69;;;45.46;17.52
12221;BME280;6173;42.024;23.096;2022-08-03T13:50:07;96503.38;;;47.00;17.08